Millennium Dawn — WDA7527 — position and weather

sailwx.info

Track history (hours):
 
Tides and Currents Weather Stations Pressure Air Temp Water Temp Dewpoint Dewpoint Depression Visibility Wind Speed Wind Dir Waves Ship Positions

Millennium Dawn

Owner: Harley Marine Services, Inc, Seattle, WA. More information available from US FCC via Universal Licensing System and Coast Guard Vessel Documentation Center.

Last reported at 2017-Dec-11 14:58 UTC. Time now 2017-Dec-11 15:24 UTC.
Position N 47°34' W 122°21'.

Length 30 m; draft 5.2 m.

Type: Tug. MMSI: 366844270.

Date/timePositionNaut miles runAvg speedWind from/ knotsBaromVisibWave heightAir tempDewpointWater temp
2017-Dec-11 14:58N 47°34' W 122°21'0 0.0
2017-Dec-11 14:28N 47°34' W 122°21'0 0.0
2017-Dec-11 13:58N 47°34' W 122°21'0 0.0
2017-Dec-11 13:28N 47°34' W 122°21'0 0.0
2017-Dec-11 12:58N 47°34' W 122°21'0 0.0
2017-Dec-11 12:28N 47°34' W 122°21'0 0.0
2017-Dec-11 11:58N 47°34' W 122°21'0 0.0
2017-Dec-11 11:28N 47°34' W 122°21'0 0.0
2017-Dec-11 10:58N 47°34' W 122°21'0 0.0
2017-Dec-11 10:28N 47°34' W 122°21'0 0.0
2017-Dec-11 09:58N 47°34' W 122°21'0 0.0
2017-Dec-11 09:28N 47°34' W 122°21'0 0.0
2017-Dec-11 08:58N 47°34' W 122°21'0 0.0
2017-Dec-11 08:28N 47°34' W 122°21'0 0.0
2017-Dec-11 07:55N 47°34' W 122°21'0 0.0
2017-Dec-11 07:28N 47°34' W 122°21'0 0.0
2017-Dec-11 06:58N 47°34' W 122°21'0 0.0
2017-Dec-11 06:28N 47°34' W 122°21'0 0.0
2017-Dec-11 05:58N 47°34' W 122°21'0 0.0
2017-Dec-11 05:28N 47°34' W 122°21'0 0.0
2017-Dec-11 04:58N 47°34' W 122°21'0 0.0
2017-Dec-11 04:28N 47°34' W 122°21'0 0.0
2017-Dec-11 03:58N 47°34' W 122°21'0 0.0
2017-Dec-11 03:28N 47°34' W 122°21'0 0.0
2017-Dec-11 03:00N 47°34' W 122°21'0 0.0
2017-Dec-11 02:30N 47°34' W 122°21'0 0.0
2017-Dec-11 02:00N 47°34' W 122°21'0 0.0
2017-Dec-11 01:30N 47°34' W 122°21'0 0.0
2017-Dec-11 01:00N 47°34' W 122°21'0 0.0
2017-Dec-11 00:30N 47°34' W 122°21'0 0.0
2017-Dec-11 00:00N 47°34' W 122°21'0 0.0
2017-Dec-10 23:30N 47°34' W 122°21'0 0.0
2017-Dec-10 23:00N 47°34' W 122°21'0 0.0
2017-Dec-10 22:30N 47°34' W 122°21'0 0.0
2017-Dec-10 22:00N 47°34' W 122°21'0 0.0
2017-Dec-10 21:30N 47°34' W 122°21'0 0.0
2017-Dec-10 21:00N 47°34' W 122°21'0 0.0
2017-Dec-10 20:30N 47°34' W 122°21'0 0.0
2017-Dec-10 20:00N 47°34' W 122°21'0 0.0
2017-Dec-10 19:30N 47°34' W 122°21'0 0.0
2017-Dec-10 19:00N 47°34' W 122°21'0 0.0
2017-Dec-10 18:30N 47°34' W 122°21'0 0.0
2017-Dec-10 18:00N 47°34' W 122°21'0 0.0
2017-Dec-10 17:30N 47°34' W 122°21'0 0.0
2017-Dec-10 17:00N 47°34' W 122°21'0 0.0
2017-Dec-10 16:30N 47°34' W 122°21'0 0.0
2017-Dec-10 16:00N 47°34' W 122°21'0 0.0
2017-Dec-10 15:30N 47°34' W 122°21'0 0.0
2017-Dec-10 15:00N 47°34' W 122°21'0 0.0
2017-Dec-10 14:30N 47°34' W 122°21'0 0.0
2017-Dec-10 14:00N 47°34' W 122°21'0 0.0
2017-Dec-10 13:30N 47°34' W 122°21'0 0.0
2017-Dec-10 13:00N 47°34' W 122°21'0 0.0
2017-Dec-10 12:30N 47°34' W 122°21'0 0.0
2017-Dec-10 12:00N 47°34' W 122°21'0 0.0
2017-Dec-10 11:30N 47°34' W 122°21'0 0.0
2017-Dec-10 11:00N 47°34' W 122°21'0 0.0
2017-Dec-10 10:30N 47°34' W 122°21'0 0.0
2017-Dec-10 10:00N 47°34' W 122°21'0 0.0
2017-Dec-10 09:30N 47°34' W 122°21'0 0.0
2017-Dec-10 09:00N 47°34' W 122°21'0 0.0
2017-Dec-10 08:30N 47°34' W 122°21'0 0.0
2017-Dec-10 08:00N 47°34' W 122°21'0 0.0
2017-Dec-10 07:30N 47°34' W 122°21'1 1.7
2017-Dec-10 07:00N 47°35' W 122°21'0 0.6
2017-Dec-10 06:30N 47°35' W 122°21'0 0.2
2017-Dec-10 06:00N 47°36' W 122°21'1 2.2
2017-Dec-10 05:30N 47°34' W 122°21'0 0.0
2017-Dec-10 05:00N 47°34' W 122°21'0 0.0
2017-Dec-10 04:30N 47°34' W 122°21'0 0.0
2017-Dec-10 04:00N 47°34' W 122°21'3 5.8
2017-Dec-10 03:30N 47°35' W 122°25'510.2
2017-Dec-10 03:00N 47°30' W 122°25'510.9
2017-Dec-10 02:30N 47°25' W 122°22'5 9.1
2017-Dec-10 02:00N 47°21' W 122°24'4 7.1
2017-Dec-10 01:30N 47°17' W 122°25'0 0.0
2017-Dec-09 03:22N 47°17' W 122°24'1 1.6
2017-Dec-09 03:00N 47°17' W 122°25'0 0.9
2017-Dec-09 02:30N 47°17' W 122°26'0 0.1
2017-Dec-09 02:00N 47°17' W 122°26'1 1.8
2017-Dec-09 01:30N 47°18' W 122°27'3 5.3
2017-Dec-09 01:00N 47°20' W 122°27'3 6.6
2017-Dec-09 00:30N 47°22' W 122°23'3 5.4
2017-Dec-09 00:00N 47°25' W 122°23'3 6.3
2017-Dec-08 23:30N 47°28' W 122°25'3 6.2
2017-Dec-08 23:00N 47°31' W 122°27'3 5.7
2017-Dec-08 22:30N 47°32' W 122°31'1 1.5
2017-Dec-08 21:59N 47°32' W 122°32'0 0.0
2017-Dec-08 21:29N 47°32' W 122°32'0 0.1
2017-Dec-08 20:59N 47°32' W 122°32'0 0.1
2017-Dec-08 20:29N 47°32' W 122°32'0 0.0
2017-Dec-08 19:59N 47°32' W 122°32'0 0.0
2017-Dec-08 19:29N 47°32' W 122°32'0 0.0
2017-Dec-08 18:59N 47°32' W 122°32'0 0.1
2017-Dec-08 18:29N 47°32' W 122°32'0 0.2
2017-Dec-08 17:59N 47°32' W 122°32'0 0.0
2017-Dec-08 17:29N 47°32' W 122°32'0 0.0
2017-Dec-08 16:59N 47°32' W 122°32'0 0.1
2017-Dec-08 16:29N 47°32' W 122°32'0 0.0
2017-Dec-08 15:59N 47°32' W 122°32'0 0.0
2017-Dec-08 15:29N 47°32' W 122°32'0 0.0
2017-Dec-08 14:59N 47°32' W 122°32'0 0.1
2017-Dec-08 14:26N 47°32' W 122°32'0 0.0
2017-Dec-08 13:59N 47°32' W 122°32'0 0.0
2017-Dec-08 13:26N 47°32' W 122°32'0 0.1
2017-Dec-08 12:59N 47°32' W 122°32'0 0.0
2017-Dec-08 12:29N 47°32' W 122°32'0 0.0
2017-Dec-08 11:59N 47°32' W 122°32'0 0.1
2017-Dec-08 11:29N 47°32' W 122°32'0 0.0
2017-Dec-08 10:59N 47°32' W 122°32'0 0.0
2017-Dec-08 10:29N 47°32' W 122°32'0 0.0
2017-Dec-08 09:59N 47°32' W 122°32'0 0.1
2017-Dec-08 09:29N 47°32' W 122°32'0 0.1
2017-Dec-08 08:59N 47°32' W 122°32'0 0.1
2017-Dec-08 08:29N 47°32' W 122°32'0 0.0
2017-Dec-08 07:59N 47°32' W 122°32'0 0.0
2017-Dec-08 07:29N 47°32' W 122°32'0 0.0
2017-Dec-08 06:59N 47°32' W 122°32'0 0.0
2017-Dec-08 06:29N 47°32' W 122°32'0 0.0
2017-Dec-08 05:59N 47°32' W 122°32'0 0.1
2017-Dec-08 05:26N 47°32' W 122°32'0 0.0
2017-Dec-08 04:59N 47°32' W 122°32'0 0.0
2017-Dec-08 04:29N 47°32' W 122°32'0 0.1
2017-Dec-08 03:57N 47°32' W 122°32'1 1.9
2017-Dec-08 03:30N 47°33' W 122°31'3 5.8
2017-Dec-08 03:00N 47°35' W 122°28'3 6.5
2017-Dec-08 02:30N 47°38' W 122°28'3 6.7
2017-Dec-08 02:00N 47°41' W 122°28'3 6.8
2017-Dec-08 01:30N 47°45' W 122°27'3 6.5
2017-Dec-08 01:00N 47°48' W 122°28'3 6.4
2017-Dec-08 00:31N 47°51' W 122°29'3 6.8
2017-Dec-08 00:00N 47°54' W 122°30'3 6.4
2017-Dec-07 23:30N 47°57' W 122°33'3 6.1
2017-Dec-07 22:56N 47°59' W 122°37'12 5.0
2017-Dec-07 20:26N 48°10' W 122°46'2 4.2
2017-Dec-07 19:56N 48°11' W 122°48'3 5.4
2017-Dec-07 19:29N 48°14' W 122°49'6 6.7
2017-Dec-07 18:38N 48°19' W 122°47'1 6.6
2017-Dec-07 18:30N 48°20' W 122°47'3 6.7
2017-Dec-07 18:00N 48°23' W 122°45'4 7.1
2017-Dec-07 17:29N 48°27' W 122°45'3 5.9
2017-Dec-07 17:00N 48°30' W 122°45'3 5.2
2017-Dec-07 16:30N 48°32' W 122°45'2 4.5
2017-Dec-07 16:00N 48°35' W 122°45'2 3.0
2017-Dec-07 15:30N 48°36' W 122°46'1 2.4
2017-Dec-07 15:00N 48°37' W 122°45'1 1.8
2017-Dec-07 14:30N 48°38' W 122°44'1 2.3
2017-Dec-07 13:59N 48°39' W 122°44'1 2.7
2017-Dec-07 13:30N 48°40' W 122°44'1 2.9
2017-Dec-07 13:00N 48°42' W 122°44'2 4.1
2017-Dec-07 12:30N 48°44' W 122°45'3 5.0
2017-Dec-07 11:54N 48°47' W 122°45'  
2017-Dec-04 10:25N 47°35' W 122°21'0 0.0
2017-Dec-04 09:58N 47°35' W 122°21'0 0.0
2017-Dec-04 09:28N 47°35' W 122°21'0 0.0
2017-Dec-04 08:59N 47°35' W 122°21'0 0.0
2017-Dec-04 08:28N 47°35' W 122°21'0 0.0
2017-Dec-04 07:58N 47°35' W 122°21'0 0.0
2017-Dec-04 07:28N 47°35' W 122°21'0 0.0
2017-Dec-04 06:58N 47°35' W 122°21'0 0.0
2017-Dec-04 06:28N 47°35' W 122°21'0 0.0
2017-Dec-04 05:58N 47°35' W 122°21'0 0.0
2017-Dec-04 05:28N 47°35' W 122°21'0 0.0
2017-Dec-04 04:58N 47°35' W 122°21'0 0.0
2017-Dec-04 04:25N 47°35' W 122°21'0 0.2
2017-Dec-04 03:58N 47°35' W 122°21'0 0.8
2017-Dec-04 03:28N 47°36' W 122°21'0 0.6
2017-Dec-04 02:58N 47°36' W 122°21'0 0.3
2017-Dec-04 02:28N 47°35' W 122°21'0 0.2
2017-Dec-04 01:58N 47°35' W 122°21'0 0.3
2017-Dec-04 01:30N 47°35' W 122°21'0 0.0
2017-Dec-04 01:00N 47°35' W 122°21'0 0.0
2017-Dec-04 00:30N 47°35' W 122°21'0 0.0
2017-Dec-03 23:59N 47°35' W 122°21'0 0.0
2017-Dec-03 23:30N 47°35' W 122°21'0 0.0
2017-Dec-03 23:00N 47°35' W 122°21'0 0.0
2017-Dec-03 22:27N 47°35' W 122°21'0 0.0
2017-Dec-03 22:00N 47°35' W 122°21'0 0.0
2017-Dec-03 21:30N 47°35' W 122°21'1 1.1
2017-Dec-03 21:00N 47°35' W 122°21'0 0.7
2017-Dec-03 20:28N 47°34' W 122°21'0 0.0
2017-Dec-03 19:58N 47°34' W 122°21'1 1.8
2017-Dec-03 19:30N 47°35' W 122°21'0 0.2
2017-Dec-03 18:58N 47°35' W 122°21'0 0.0
2017-Dec-03 18:28N 47°35' W 122°21'0 0.0
2017-Dec-03 17:58N 47°35' W 122°21'0 0.0
2017-Dec-03 17:28N 47°35' W 122°21'0 0.0
2017-Dec-03 16:58N 47°35' W 122°21'0 0.0
2017-Dec-03 16:28N 47°35' W 122°21'0 0.0
2017-Dec-03 15:58N 47°35' W 122°21'0 0.0
2017-Dec-03 15:28N 47°35' W 122°21'0 0.0
2017-Dec-03 14:59N 47°35' W 122°21'0 0.0
2017-Dec-03 14:28N 47°35' W 122°21'0 0.1
2017-Dec-03 13:55N 47°35' W 122°21'0 0.0
2017-Dec-03 13:28N 47°35' W 122°21'0 0.7
2017-Dec-03 12:55N 47°36' W 122°21'1 1.7
2017-Dec-03 12:31N 47°36' W 122°22'3 5.1
2017-Dec-03 12:01N 47°38' W 122°25'3 5.0
2017-Dec-03 11:30N 47°39' W 122°28'2 4.8
2017-Dec-03 11:01N 47°41' W 122°28'2 4.6
2017-Dec-03 10:31N 47°44' W 122°28'2 4.8
2017-Dec-03 10:00N 47°46' W 122°27'2 4.9
2017-Dec-03 09:30N 47°49' W 122°28'2 4.9
2017-Dec-03 09:00N 47°51' W 122°29'3 5.5
2017-Dec-03 08:31N 47°54' W 122°30'3 5.3
2017-Dec-03 08:00N 47°56' W 122°32'20 5.4
2017-Dec-03 04:25N 48°12' W 122°48'5 5.5
2017-Dec-03 03:25N 48°18' W 122°48'3 7.2
2017-Dec-03 02:58N 48°21' W 122°47'4 7.8
2017-Dec-03 02:30N 48°24' W 122°45'4 8.7
2017-Dec-03 02:00N 48°28' W 122°45'4 9.0
2017-Dec-03 01:30N 48°33' W 122°45'4 8.4
2017-Dec-03 01:00N 48°37' W 122°45'4 7.3
2017-Dec-03 00:30N 48°41' W 122°44'3 6.5
2017-Dec-03 00:00N 48°44' W 122°46'3 6.1
2017-Dec-02 23:29N 48°47' W 122°45'3 0.1
2017-Dec-01 20:13N 48°49' W 122°43'1 2.7
2017-Dec-01 19:43N 48°48' W 122°44'0 0.5
2017-Dec-01 19:01N 48°48' W 122°45'0 4.9
2017-Dec-01 19:00N 48°48' W 122°45'3 5.6
2017-Dec-01 18:30N 48°45' W 122°45'3 6.5
2017-Dec-01 18:00N 48°42' W 122°43'3 6.4
2017-Dec-01 17:30N 48°39' W 122°43'3 6.3
2017-Dec-01 17:00N 48°36' W 122°45'3 6.7
2017-Dec-01 16:30N 48°33' W 122°45'4 8.2
2017-Dec-01 16:00N 48°29' W 122°44'5 9.4
2017-Dec-01 15:30N 48°24' W 122°44'  
Track history (hours):
 
Tides and Currents Weather Stations Pressure Air Temp Water Temp Dewpoint Dewpoint Depression Visibility Wind Speed Wind Dir Waves Ship Positions

Millennium Dawn

Owner: Harley Marine Services, Inc, Seattle, WA. More information available from US FCC via Universal Licensing System and Coast Guard Vessel Documentation Center.

Last reported at 2017-Dec-11 14:58 UTC. Time now 2017-Dec-11 15:24 UTC.
Position N 47°34' W 122°21'.

Length 30 m; draft 5.2 m.

Type: Tug. MMSI: 366844270.

Date/timePositionNaut miles runAvg speedWind from/ knotsBaromVisibWave heightAir tempDewpointWater temp
2017-Dec-11 14:58N 47°34' W 122°21'0 0.0
2017-Dec-11 14:28N 47°34' W 122°21'0 0.0
2017-Dec-11 13:58N 47°34' W 122°21'0 0.0
2017-Dec-11 13:28N 47°34' W 122°21'0 0.0
2017-Dec-11 12:58N 47°34' W 122°21'0 0.0
2017-Dec-11 12:28N 47°34' W 122°21'0 0.0
2017-Dec-11 11:58N 47°34' W 122°21'0 0.0
2017-Dec-11 11:28N 47°34' W 122°21'0 0.0
2017-Dec-11 10:58N 47°34' W 122°21'0 0.0
2017-Dec-11 10:28N 47°34' W 122°21'0 0.0
2017-Dec-11 09:58N 47°34' W 122°21'0 0.0
2017-Dec-11 09:28N 47°34' W 122°21'0 0.0
2017-Dec-11 08:58N 47°34' W 122°21'0 0.0
2017-Dec-11 08:28N 47°34' W 122°21'0 0.0
2017-Dec-11 07:55N 47°34' W 122°21'0 0.0
2017-Dec-11 07:28N 47°34' W 122°21'0 0.0
2017-Dec-11 06:58N 47°34' W 122°21'0 0.0
2017-Dec-11 06:28N 47°34' W 122°21'0 0.0
2017-Dec-11 05:58N 47°34' W 122°21'0 0.0
2017-Dec-11 05:28N 47°34' W 122°21'0 0.0
2017-Dec-11 04:58N 47°34' W 122°21'0 0.0
2017-Dec-11 04:28N 47°34' W 122°21'0 0.0
2017-Dec-11 03:58N 47°34' W 122°21'0 0.0
2017-Dec-11 03:28N 47°34' W 122°21'0 0.0
2017-Dec-11 03:00N 47°34' W 122°21'0 0.0
2017-Dec-11 02:30N 47°34' W 122°21'0 0.0
2017-Dec-11 02:00N 47°34' W 122°21'0 0.0
2017-Dec-11 01:30N 47°34' W 122°21'0 0.0
2017-Dec-11 01:00N 47°34' W 122°21'0 0.0
2017-Dec-11 00:30N 47°34' W 122°21'0 0.0
2017-Dec-11 00:00N 47°34' W 122°21'0 0.0
2017-Dec-10 23:30N 47°34' W 122°21'0 0.0
2017-Dec-10 23:00N 47°34' W 122°21'0 0.0
2017-Dec-10 22:30N 47°34' W 122°21'0 0.0
2017-Dec-10 22:00N 47°34' W 122°21'0 0.0
2017-Dec-10 21:30N 47°34' W 122°21'0 0.0
2017-Dec-10 21:00N 47°34' W 122°21'0 0.0
2017-Dec-10 20:30N 47°34' W 122°21'0 0.0
2017-Dec-10 20:00N 47°34' W 122°21'0 0.0
2017-Dec-10 19:30N 47°34' W 122°21'0 0.0
2017-Dec-10 19:00N 47°34' W 122°21'0 0.0
2017-Dec-10 18:30N 47°34' W 122°21'0 0.0
2017-Dec-10 18:00N 47°34' W 122°21'0 0.0
2017-Dec-10 17:30N 47°34' W 122°21'0 0.0
2017-Dec-10 17:00N 47°34' W 122°21'0 0.0
2017-Dec-10 16:30N 47°34' W 122°21'0 0.0
2017-Dec-10 16:00N 47°34' W 122°21'0 0.0
2017-Dec-10 15:30N 47°34' W 122°21'0 0.0
2017-Dec-10 15:00N 47°34' W 122°21'0 0.0
2017-Dec-10 14:30N 47°34' W 122°21'0 0.0
2017-Dec-10 14:00N 47°34' W 122°21'0 0.0
2017-Dec-10 13:30N 47°34' W 122°21'0 0.0
2017-Dec-10 13:00N 47°34' W 122°21'0 0.0
2017-Dec-10 12:30N 47°34' W 122°21'0 0.0
2017-Dec-10 12:00N 47°34' W 122°21'0 0.0
2017-Dec-10 11:30N 47°34' W 122°21'0 0.0
2017-Dec-10 11:00N 47°34' W 122°21'0 0.0
2017-Dec-10 10:30N 47°34' W 122°21'0 0.0
2017-Dec-10 10:00N 47°34' W 122°21'0 0.0
2017-Dec-10 09:30N 47°34' W 122°21'0 0.0
2017-Dec-10 09:00N 47°34' W 122°21'0 0.0
2017-Dec-10 08:30N 47°34' W 122°21'0 0.0
2017-Dec-10 08:00N 47°34' W 122°21'0 0.0
2017-Dec-10 07:30N 47°34' W 122°21'1 1.7
2017-Dec-10 07:00N 47°35' W 122°21'0 0.6
2017-Dec-10 06:30N 47°35' W 122°21'0 0.2
2017-Dec-10 06:00N 47°36' W 122°21'1 2.2
2017-Dec-10 05:30N 47°34' W 122°21'0 0.0
2017-Dec-10 05:00N 47°34' W 122°21'0 0.0
2017-Dec-10 04:30N 47°34' W 122°21'0 0.0
2017-Dec-10 04:00N 47°34' W 122°21'3 5.8
2017-Dec-10 03:30N 47°35' W 122°25'510.2
2017-Dec-10 03:00N 47°30' W 122°25'510.9
2017-Dec-10 02:30N 47°25' W 122°22'5 9.1
2017-Dec-10 02:00N 47°21' W 122°24'4 7.1
2017-Dec-10 01:30N 47°17' W 122°25'0 0.0
2017-Dec-09 03:22N 47°17' W 122°24'1 1.6
2017-Dec-09 03:00N 47°17' W 122°25'0 0.9
2017-Dec-09 02:30N 47°17' W 122°26'0 0.1
2017-Dec-09 02:00N 47°17' W 122°26'1 1.8
2017-Dec-09 01:30N 47°18' W 122°27'3 5.3
2017-Dec-09 01:00N 47°20' W 122°27'3 6.6
2017-Dec-09 00:30N 47°22' W 122°23'3 5.4
2017-Dec-09 00:00N 47°25' W 122°23'3 6.3
2017-Dec-08 23:30N 47°28' W 122°25'3 6.2
2017-Dec-08 23:00N 47°31' W 122°27'3 5.7
2017-Dec-08 22:30N 47°32' W 122°31'1 1.5
2017-Dec-08 21:59N 47°32' W 122°32'0 0.0
2017-Dec-08 21:29N 47°32' W 122°32'0 0.1
2017-Dec-08 20:59N 47°32' W 122°32'0 0.1
2017-Dec-08 20:29N 47°32' W 122°32'0 0.0
2017-Dec-08 19:59N 47°32' W 122°32'0 0.0
2017-Dec-08 19:29N 47°32' W 122°32'0 0.0
2017-Dec-08 18:59N 47°32' W 122°32'0 0.1
2017-Dec-08 18:29N 47°32' W 122°32'0 0.2
2017-Dec-08 17:59N 47°32' W 122°32'0 0.0
2017-Dec-08 17:29N 47°32' W 122°32'0 0.0
2017-Dec-08 16:59N 47°32' W 122°32'0 0.1
2017-Dec-08 16:29N 47°32' W 122°32'0 0.0
2017-Dec-08 15:59N 47°32' W 122°32'0 0.0
2017-Dec-08 15:29N 47°32' W 122°32'0 0.0
2017-Dec-08 14:59N 47°32' W 122°32'0 0.1
2017-Dec-08 14:26N 47°32' W 122°32'0 0.0
2017-Dec-08 13:59N 47°32' W 122°32'0 0.0
2017-Dec-08 13:26N 47°32' W 122°32'0 0.1
2017-Dec-08 12:59N 47°32' W 122°32'0 0.0
2017-Dec-08 12:29N 47°32' W 122°32'0 0.0
2017-Dec-08 11:59N 47°32' W 122°32'0 0.1
2017-Dec-08 11:29N 47°32' W 122°32'0 0.0
2017-Dec-08 10:59N 47°32' W 122°32'0 0.0
2017-Dec-08 10:29N 47°32' W 122°32'0 0.0
2017-Dec-08 09:59N 47°32' W 122°32'0 0.1
2017-Dec-08 09:29N 47°32' W 122°32'0 0.1
2017-Dec-08 08:59N 47°32' W 122°32'0 0.1
2017-Dec-08 08:29N 47°32' W 122°32'0 0.0
2017-Dec-08 07:59N 47°32' W 122°32'0 0.0
2017-Dec-08 07:29N 47°32' W 122°32'0 0.0
2017-Dec-08 06:59N 47°32' W 122°32'0 0.0
2017-Dec-08 06:29N 47°32' W 122°32'0 0.0
2017-Dec-08 05:59N 47°32' W 122°32'0 0.1
2017-Dec-08 05:26N 47°32' W 122°32'0 0.0
2017-Dec-08 04:59N 47°32' W 122°32'0 0.0
2017-Dec-08 04:29N 47°32' W 122°32'0 0.1
2017-Dec-08 03:57N 47°32' W 122°32'1 1.9
2017-Dec-08 03:30N 47°33' W 122°31'3 5.8
2017-Dec-08 03:00N 47°35' W 122°28'3 6.5
2017-Dec-08 02:30N 47°38' W 122°28'3 6.7
2017-Dec-08 02:00N 47°41' W 122°28'3 6.8
2017-Dec-08 01:30N 47°45' W 122°27'3 6.5
2017-Dec-08 01:00N 47°48' W 122°28'3 6.4
2017-Dec-08 00:31N 47°51' W 122°29'3 6.8
2017-Dec-08 00:00N 47°54' W 122°30'3 6.4
2017-Dec-07 23:30N 47°57' W 122°33'3 6.1
2017-Dec-07 22:56N 47°59' W 122°37'12 5.0
2017-Dec-07 20:26N 48°10' W 122°46'2 4.2
2017-Dec-07 19:56N 48°11' W 122°48'3 5.4
2017-Dec-07 19:29N 48°14' W 122°49'6 6.7
2017-Dec-07 18:38N 48°19' W 122°47'1 6.6
2017-Dec-07 18:30N 48°20' W 122°47'3 6.7
2017-Dec-07 18:00N 48°23' W 122°45'4 7.1
2017-Dec-07 17:29N 48°27' W 122°45'3 5.9
2017-Dec-07 17:00N 48°30' W 122°45'3 5.2
2017-Dec-07 16:30N 48°32' W 122°45'2 4.5
2017-Dec-07 16:00N 48°35' W 122°45'2 3.0
2017-Dec-07 15:30N 48°36' W 122°46'1 2.4
2017-Dec-07 15:00N 48°37' W 122°45'1 1.8
2017-Dec-07 14:30N 48°38' W 122°44'1 2.3
2017-Dec-07 13:59N 48°39' W 122°44'1 2.7
2017-Dec-07 13:30N 48°40' W 122°44'1 2.9
2017-Dec-07 13:00N 48°42' W 122°44'2 4.1
2017-Dec-07 12:30N 48°44' W 122°45'3 5.0
2017-Dec-07 11:54N 48°47' W 122°45'  
2017-Dec-04 10:25N 47°35' W 122°21'0 0.0
2017-Dec-04 09:58N 47°35' W 122°21'0 0.0
2017-Dec-04 09:28N 47°35' W 122°21'0 0.0
2017-Dec-04 08:59N 47°35' W 122°21'0 0.0
2017-Dec-04 08:28N 47°35' W 122°21'0 0.0
2017-Dec-04 07:58N 47°35' W 122°21'0 0.0
2017-Dec-04 07:28N 47°35' W 122°21'0 0.0
2017-Dec-04 06:58N 47°35' W 122°21'0 0.0
2017-Dec-04 06:28N 47°35' W 122°21'0 0.0
2017-Dec-04 05:58N 47°35' W 122°21'0 0.0
2017-Dec-04 05:28N 47°35' W 122°21'0 0.0
2017-Dec-04 04:58N 47°35' W 122°21'0 0.0
2017-Dec-04 04:25N 47°35' W 122°21'0 0.2
2017-Dec-04 03:58N 47°35' W 122°21'0 0.8
2017-Dec-04 03:28N 47°36' W 122°21'0 0.6
2017-Dec-04 02:58N 47°36' W 122°21'0 0.3
2017-Dec-04 02:28N 47°35' W 122°21'0 0.2
2017-Dec-04 01:58N 47°35' W 122°21'0 0.3
2017-Dec-04 01:30N 47°35' W 122°21'0 0.0
2017-Dec-04 01:00N 47°35' W 122°21'0 0.0
2017-Dec-04 00:30N 47°35' W 122°21'0 0.0
2017-Dec-03 23:59N 47°35' W 122°21'0 0.0
2017-Dec-03 23:30N 47°35' W 122°21'0 0.0
2017-Dec-03 23:00N 47°35' W 122°21'0 0.0
2017-Dec-03 22:27N 47°35' W 122°21'0 0.0
2017-Dec-03 22:00N 47°35' W 122°21'0 0.0
2017-Dec-03 21:30N 47°35' W 122°21'1 1.1
2017-Dec-03 21:00N 47°35' W 122°21'0 0.7
2017-Dec-03 20:28N 47°34' W 122°21'0 0.0
2017-Dec-03 19:58N 47°34' W 122°21'1 1.8
2017-Dec-03 19:30N 47°35' W 122°21'0 0.2
2017-Dec-03 18:58N 47°35' W 122°21'0 0.0
2017-Dec-03 18:28N 47°35' W 122°21'0 0.0
2017-Dec-03 17:58N 47°35' W 122°21'0 0.0
2017-Dec-03 17:28N 47°35' W 122°21'0 0.0
2017-Dec-03 16:58N 47°35' W 122°21'0 0.0
2017-Dec-03 16:28N 47°35' W 122°21'0 0.0
2017-Dec-03 15:58N 47°35' W 122°21'0 0.0
2017-Dec-03 15:28N 47°35' W 122°21'0 0.0
2017-Dec-03 14:59N 47°35' W 122°21'0 0.0
2017-Dec-03 14:28N 47°35' W 122°21'0 0.1
2017-Dec-03 13:55N 47°35' W 122°21'0 0.0
2017-Dec-03 13:28N 47°35' W 122°21'0 0.7
2017-Dec-03 12:55N 47°36' W 122°21'1 1.7
2017-Dec-03 12:31N 47°36' W 122°22'3 5.1
2017-Dec-03 12:01N 47°38' W 122°25'3 5.0
2017-Dec-03 11:30N 47°39' W 122°28'2 4.8
2017-Dec-03 11:01N 47°41' W 122°28'2 4.6
2017-Dec-03 10:31N 47°44' W 122°28'2 4.8
2017-Dec-03 10:00N 47°46' W 122°27'2 4.9
2017-Dec-03 09:30N 47°49' W 122°28'2 4.9
2017-Dec-03 09:00N 47°51' W 122°29'3 5.5
2017-Dec-03 08:31N 47°54' W 122°30'3 5.3
2017-Dec-03 08:00N 47°56' W 122°32'20 5.4
2017-Dec-03 04:25N 48°12' W 122°48'5 5.5
2017-Dec-03 03:25N 48°18' W 122°48'3 7.2
2017-Dec-03 02:58N 48°21' W 122°47'4 7.8
2017-Dec-03 02:30N 48°24' W 122°45'4 8.7
2017-Dec-03 02:00N 48°28' W 122°45'4 9.0
2017-Dec-03 01:30N 48°33' W 122°45'4 8.4
2017-Dec-03 01:00N 48°37' W 122°45'4 7.3
2017-Dec-03 00:30N 48°41' W 122°44'3 6.5
2017-Dec-03 00:00N 48°44' W 122°46'3 6.1
2017-Dec-02 23:29N 48°47' W 122°45'3 0.1
2017-Dec-01 20:13N 48°49' W 122°43'1 2.7
2017-Dec-01 19:43N 48°48' W 122°44'0 0.5
2017-Dec-01 19:01N 48°48' W 122°45'0 4.9
2017-Dec-01 19:00N 48°48' W 122°45'3 5.6
2017-Dec-01 18:30N 48°45' W 122°45'3 6.5
2017-Dec-01 18:00N 48°42' W 122°43'3 6.4
2017-Dec-01 17:30N 48°39' W 122°43'3 6.3
2017-Dec-01 17:00N 48°36' W 122°45'3 6.7
2017-Dec-01 16:30N 48°33' W 122°45'4 8.2
2017-Dec-01 16:00N 48°29' W 122°44'5 9.4
2017-Dec-01 15:30N 48°24' W 122°44'  

Dump ship's entire track history